sensor_id;sensor_type;location;lat;lon;timestamp;P1;durP1;ratioP1;P2;durP2;ratioP2
12585;SDS011;6358;50.760;0.282;2022-09-20T00:03:36;1.30;;;1.20;;
12585;SDS011;6358;50.760;0.282;2022-09-20T00:06:03;2.27;;;1.10;;
12585;SDS011;6358;50.760;0.282;2022-09-20T00:08:29;1.50;;;1.10;;
12585;SDS011;6358;50.760;0.282;2022-09-20T00:11:09;1.00;;;0.90;;
12585;SDS011;6358;50.760;0.282;2022-09-20T00:13:36;0.97;;;0.97;;
12585;SDS011;6358;50.760;0.282;2022-09-20T00:16:06;1.00;;;1.00;;
12585;SDS011;6358;50.760;0.282;2022-09-20T00:18:33;1.07;;;0.90;;
12585;SDS011;6358;50.760;0.282;2022-09-20T00:20:59;1.10;;;1.00;;
12585;SDS011;6358;50.760;0.282;2022-09-20T00:23:26;1.00;;;1.00;;
12585;SDS011;6358;50.760;0.282;2022-09-20T00:25:59;1.73;;;1.10;;
12585;SDS011;6358;50.760;0.282;2022-09-20T00:28:25;1.00;;;1.00;;
12585;SDS011;6358;50.760;0.282;2022-09-20T00:30:52;1.20;;;1.10;;
12585;SDS011;6358;50.760;0.282;2022-09-20T00:33:18;1.20;;;1.20;;
12585;SDS011;6358;50.760;0.282;2022-09-20T00:35:45;1.10;;;1.00;;
12585;SDS011;6358;50.760;0.282;2022-09-20T00:38:12;1.20;;;1.10;;
12585;SDS011;6358;50.760;0.282;2022-09-20T00:40:39;1.20;;;1.20;;
12585;SDS011;6358;50.760;0.282;2022-09-20T00:43:05;1.00;;;1.00;;
12585;SDS011;6358;50.760;0.282;2022-09-20T00:45:31;1.03;;;1.03;;
12585;SDS011;6358;50.760;0.282;2022-09-20T00:47:59;1.23;;;1.07;;
12585;SDS011;6358;50.760;0.282;2022-09-20T00:53:02;1.10;;;1.10;;
12585;SDS011;6358;50.760;0.282;2022-09-20T00:55:29;2.07;;;1.30;;
12585;SDS011;6358;50.760;0.282;2022-09-20T00:57:56;1.23;;;1.13;;
12585;SDS011;6358;50.760;0.282;2022-09-20T01:00:22;1.43;;;1.30;;
12585;SDS011;6358;50.760;0.282;2022-09-20T01:02:50;1.37;;;1.10;;
12585;SDS011;6358;50.760;0.282;2022-09-20T01:05:16;1.67;;;1.53;;
12585;SDS011;6358;50.760;0.282;2022-09-20T01:07:43;1.87;;;1.37;;
12585;SDS011;6358;50.760;0.282;2022-09-20T01:10:10;1.30;;;1.20;;
12585;SDS011;6358;50.760;0.282;2022-09-20T01:12:36;1.47;;;1.37;;
12585;SDS011;6358;50.760;0.282;2022-09-20T01:15:05;1.73;;;1.30;;
12585;SDS011;6358;50.760;0.282;2022-09-20T01:17:33;1.80;;;1.50;;
12585;SDS011;6358;50.760;0.282;2022-09-20T01:25:06;1.40;;;1.30;;
12585;SDS011;6358;50.760;0.282;2022-09-20T01:27:44;2.23;;;1.20;;
12585;SDS011;6358;50.760;0.282;2022-09-20T01:30:12;1.30;;;1.20;;
12585;SDS011;6358;50.760;0.282;2022-09-20T01:33:06;1.30;;;1.20;;
12585;SDS011;6358;50.760;0.282;2022-09-20T01:35:34;1.40;;;1.30;;
12585;SDS011;6358;50.760;0.282;2022-09-20T01:40:48;1.73;;;1.60;;
12585;SDS011;6358;50.760;0.282;2022-09-20T01:46:03;2.57;;;1.50;;
12585;SDS011;6358;50.760;0.282;2022-09-20T01:48:36;1.50;;;1.40;;
12585;SDS011;6358;50.760;0.282;2022-09-20T02:11:28;1.57;;;1.40;;
12585;SDS011;6358;50.760;0.282;2022-09-20T02:22:47;1.97;;;1.60;;
12585;SDS011;6358;50.760;0.282;2022-09-20T02:24:43;1.40;;;1.30;;
12585;SDS011;6358;50.760;0.282;2022-09-20T02:27:24;1.50;;;1.40;;
12585;SDS011;6358;50.760;0.282;2022-09-20T02:37:42;1.60;;;1.50;;
12585;SDS011;6358;50.760;0.282;2022-09-20T02:42:52;2.17;;;1.60;;
12585;SDS011;6358;50.760;0.282;2022-09-20T02:47:48;1.90;;;1.60;;
12585;SDS011;6358;50.760;0.282;2022-09-20T03:00:41;1.50;;;1.40;;
12585;SDS011;6358;50.760;0.282;2022-09-20T03:03:28;3.57;;;1.60;;
12585;SDS011;6358;50.760;0.282;2022-09-20T03:08:46;1.60;;;1.50;;
12585;SDS011;6358;50.760;0.282;2022-09-20T03:14:17;1.57;;;1.43;;
12585;SDS011;6358;50.760;0.282;2022-09-20T03:19:21;1.50;;;1.40;;
12585;SDS011;6358;50.760;0.282;2022-09-20T03:25:20;1.87;;;1.60;;
12585;SDS011;6358;50.760;0.282;2022-09-20T03:28:05;1.53;;;1.30;;
12585;SDS011;6358;50.760;0.282;2022-09-20T03:43:03;1.50;;;1.40;;
12585;SDS011;6358;50.760;0.282;2022-09-20T04:03:52;1.83;;;1.50;;
12585;SDS011;6358;50.760;0.282;2022-09-20T04:14:42;1.37;;;1.27;;
12585;SDS011;6358;50.760;0.282;2022-09-20T04:17:28;1.43;;;1.30;;
12585;SDS011;6358;50.760;0.282;2022-09-20T04:22:41;1.60;;;1.50;;
12585;SDS011;6358;50.760;0.282;2022-09-20T04:27:52;1.57;;;1.47;;
12585;SDS011;6358;50.760;0.282;2022-09-20T04:30:20;1.80;;;1.50;;
12585;SDS011;6358;50.760;0.282;2022-09-20T04:38:29;1.50;;;1.40;;
12585;SDS011;6358;50.760;0.282;2022-09-20T04:43:44;1.60;;;1.40;;
12585;SDS011;6358;50.760;0.282;2022-09-20T04:49:04;1.50;;;1.40;;
12585;SDS011;6358;50.760;0.282;2022-09-20T04:59:46;1.50;;;1.40;;
12585;SDS011;6358;50.760;0.282;2022-09-20T05:05:33;1.50;;;1.30;;
12585;SDS011;6358;50.760;0.282;2022-09-20T05:08:13;1.37;;;1.27;;
12585;SDS011;6358;50.760;0.282;2022-09-20T05:23:19;1.40;;;1.30;;
12585;SDS011;6358;50.760;0.282;2022-09-20T05:28:44;1.53;;;1.40;;
12585;SDS011;6358;50.760;0.282;2022-09-20T05:38:49;1.70;;;1.60;;
12585;SDS011;6358;50.760;0.282;2022-09-20T05:44:05;1.77;;;1.50;;
12585;SDS011;6358;50.760;0.282;2022-09-20T05:49:11;1.50;;;1.40;;
12585;SDS011;6358;50.760;0.282;2022-09-20T05:51:58;1.27;;;1.20;;
12585;SDS011;6358;50.760;0.282;2022-09-20T05:57:06;1.33;;;1.17;;
12585;SDS011;6358;50.760;0.282;2022-09-20T06:17:42;1.10;;;1.10;;
12585;SDS011;6358;50.760;0.282;2022-09-20T06:20:17;1.40;;;1.30;;
12585;SDS011;6358;50.760;0.282;2022-09-20T06:22:47;1.30;;;1.20;;
12585;SDS011;6358;50.760;0.282;2022-09-20T06:25:29;2.10;;;1.53;;
12585;SDS011;6358;50.760;0.282;2022-09-20T06:27:58;1.60;;;1.37;;
12585;SDS011;6358;50.760;0.282;2022-09-20T06:30:30;1.50;;;1.40;;
12585;SDS011;6358;50.760;0.282;2022-09-20T06:35:35;1.50;;;1.40;;
12585;SDS011;6358;50.760;0.282;2022-09-20T06:38:10;1.47;;;1.33;;
12585;SDS011;6358;50.760;0.282;2022-09-20T06:40:59;1.50;;;1.33;;
12585;SDS011;6358;50.760;0.282;2022-09-20T06:43:43;1.30;;;1.20;;
12585;SDS011;6358;50.760;0.282;2022-09-20T06:46:10;1.57;;;1.40;;
12585;SDS011;6358;50.760;0.282;2022-09-20T06:48:38;1.67;;;1.10;;
12585;SDS011;6358;50.760;0.282;2022-09-20T06:51:05;1.83;;;1.40;;
12585;SDS011;6358;50.760;0.282;2022-09-20T06:53:34;1.30;;;1.20;;
12585;SDS011;6358;50.760;0.282;2022-09-20T06:56:02;1.67;;;1.20;;
12585;SDS011;6358;50.760;0.282;2022-09-20T06:58:28;1.40;;;1.30;;
12585;SDS011;6358;50.760;0.282;2022-09-20T07:00:55;1.37;;;1.27;;
12585;SDS011;6358;50.760;0.282;2022-09-20T07:03:21;1.57;;;1.40;;
12585;SDS011;6358;50.760;0.282;2022-09-20T07:05:47;2.10;;;1.20;;
12585;SDS011;6358;50.760;0.282;2022-09-20T07:08:14;1.13;;;1.10;;
12585;SDS011;6358;50.760;0.282;2022-09-20T07:10:40;1.67;;;1.00;;
12585;SDS011;6358;50.760;0.282;2022-09-20T07:13:09;1.20;;;1.10;;
12585;SDS011;6358;50.760;0.282;2022-09-20T07:15:37;1.00;;;1.00;;
12585;SDS011;6358;50.760;0.282;2022-09-20T07:18:04;1.47;;;1.30;;
12585;SDS011;6358;50.760;0.282;2022-09-20T07:20:30;1.47;;;1.27;;
12585;SDS011;6358;50.760;0.282;2022-09-20T07:22:56;1.20;;;1.10;;
12585;SDS011;6358;50.760;0.282;2022-09-20T07:25:22;2.43;;;1.20;;
12585;SDS011;6358;50.760;0.282;2022-09-20T07:27:48;1.20;;;1.10;;
12585;SDS011;6358;50.760;0.282;2022-09-20T07:30:15;1.27;;;1.20;;
12585;SDS011;6358;50.760;0.282;2022-09-20T07:32:41;2.10;;;1.20;;
12585;SDS011;6358;50.760;0.282;2022-09-20T07:35:08;1.23;;;1.10;;
12585;SDS011;6358;50.760;0.282;2022-09-20T07:37:35;1.30;;;1.20;;
12585;SDS011;6358;50.760;0.282;2022-09-20T07:40:01;1.20;;;1.00;;
12585;SDS011;6358;50.760;0.282;2022-09-20T07:42:29;1.23;;;1.13;;
12585;SDS011;6358;50.760;0.282;2022-09-20T07:44:55;1.20;;;1.20;;
12585;SDS011;6358;50.760;0.282;2022-09-20T07:47:21;1.27;;;1.17;;
12585;SDS011;6358;50.760;0.282;2022-09-20T07:49:49;1.13;;;1.13;;
12585;SDS011;6358;50.760;0.282;2022-09-20T07:52:16;1.13;;;1.00;;
12585;SDS011;6358;50.760;0.282;2022-09-20T07:54:42;1.10;;;1.10;;
12585;SDS011;6358;50.760;0.282;2022-09-20T07:57:10;1.27;;;1.17;;
12585;SDS011;6358;50.760;0.282;2022-09-20T07:59:36;1.30;;;1.20;;
12585;SDS011;6358;50.760;0.282;2022-09-20T08:02:02;2.00;;;1.10;;
12585;SDS011;6358;50.760;0.282;2022-09-20T08:04:29;1.27;;;1.17;;
12585;SDS011;6358;50.760;0.282;2022-09-20T08:06:55;1.53;;;1.33;;
12585;SDS011;6358;50.760;0.282;2022-09-20T08:09:22;1.30;;;1.20;;
12585;SDS011;6358;50.760;0.282;2022-09-20T08:11:49;1.30;;;1.20;;
12585;SDS011;6358;50.760;0.282;2022-09-20T08:14:15;1.60;;;1.23;;
12585;SDS011;6358;50.760;0.282;2022-09-20T08:16:42;1.40;;;1.30;;
12585;SDS011;6358;50.760;0.282;2022-09-20T08:19:13;1.20;;;1.10;;
12585;SDS011;6358;50.760;0.282;2022-09-20T08:21:39;1.20;;;1.10;;
12585;SDS011;6358;50.760;0.282;2022-09-20T08:24:05;1.60;;;1.10;;
12585;SDS011;6358;50.760;0.282;2022-09-20T08:26:31;1.30;;;1.20;;
12585;SDS011;6358;50.760;0.282;2022-09-20T08:28:59;2.00;;;1.10;;
12585;SDS011;6358;50.760;0.282;2022-09-20T08:31:27;1.20;;;1.10;;
12585;SDS011;6358;50.760;0.282;2022-09-20T08:34:01;1.70;;;1.23;;
12585;SDS011;6358;50.760;0.282;2022-09-20T08:36:28;1.13;;;1.10;;
12585;SDS011;6358;50.760;0.282;2022-09-20T08:38:54;1.33;;;1.10;;
12585;SDS011;6358;50.760;0.282;2022-09-20T08:41:28;1.20;;;1.10;;
12585;SDS011;6358;50.760;0.282;2022-09-20T08:43:57;1.10;;;1.10;;
12585;SDS011;6358;50.760;0.282;2022-09-20T08:46:43;2.03;;;1.30;;
12585;SDS011;6358;50.760;0.282;2022-09-20T08:49:12;1.53;;;1.07;;
12585;SDS011;6358;50.760;0.282;2022-09-20T08:51:40;1.30;;;1.20;;
12585;SDS011;6358;50.760;0.282;2022-09-20T08:54:06;2.03;;;1.40;;
12585;SDS011;6358;50.760;0.282;2022-09-20T08:56:37;1.43;;;1.10;;
12585;SDS011;6358;50.760;0.282;2022-09-20T08:59:04;1.10;;;1.00;;
12585;SDS011;6358;50.760;0.282;2022-09-20T09:01:32;1.30;;;1.20;;
12585;SDS011;6358;50.760;0.282;2022-09-20T09:04:01;1.27;;;1.20;;
12585;SDS011;6358;50.760;0.282;2022-09-20T09:06:32;1.10;;;1.00;;
12585;SDS011;6358;50.760;0.282;2022-09-20T09:08:58;1.07;;;1.07;;
12585;SDS011;6358;50.760;0.282;2022-09-20T09:11:24;1.10;;;1.10;;
12585;SDS011;6358;50.760;0.282;2022-09-20T09:14:09;1.00;;;1.00;;
12585;SDS011;6358;50.760;0.282;2022-09-20T09:16:55;1.00;;;1.00;;
12585;SDS011;6358;50.760;0.282;2022-09-20T09:19:31;1.03;;;1.00;;
12585;SDS011;6358;50.760;0.282;2022-09-20T09:22:02;1.00;;;1.00;;
12585;SDS011;6358;50.760;0.282;2022-09-20T09:24:28;1.20;;;1.10;;
12585;SDS011;6358;50.760;0.282;2022-09-20T09:27:05;1.60;;;1.27;;
12585;SDS011;6358;50.760;0.282;2022-09-20T09:29:31;1.00;;;1.00;;
12585;SDS011;6358;50.760;0.282;2022-09-20T09:31:58;1.83;;;1.27;;
12585;SDS011;6358;50.760;0.282;2022-09-20T09:34:40;1.33;;;1.10;;
12585;SDS011;6358;50.760;0.282;2022-09-20T09:37:08;2.70;;;1.13;;
12585;SDS011;6358;50.760;0.282;2022-09-20T09:39:46;1.00;;;1.00;;
12585;SDS011;6358;50.760;0.282;2022-09-20T09:42:19;1.10;;;1.10;;
12585;SDS011;6358;50.760;0.282;2022-09-20T09:44:45;1.00;;;1.00;;
12585;SDS011;6358;50.760;0.282;2022-09-20T09:47:26;1.10;;;1.00;;
12585;SDS011;6358;50.760;0.282;2022-09-20T09:49:56;1.03;;;1.00;;
12585;SDS011;6358;50.760;0.282;2022-09-20T09:52:23;1.10;;;1.00;;
12585;SDS011;6358;50.760;0.282;2022-09-20T09:54:55;1.43;;;1.03;;
12585;SDS011;6358;50.760;0.282;2022-09-20T10:07:35;1.10;;;1.00;;
12585;SDS011;6358;50.760;0.282;2022-09-20T10:12:35;0.93;;;0.87;;
12585;SDS011;6358;50.760;0.282;2022-09-20T10:28:13;1.20;;;1.10;;
12585;SDS011;6358;50.760;0.282;2022-09-20T10:38:35;1.30;;;1.20;;
12585;SDS011;6358;50.760;0.282;2022-09-20T10:41:13;1.83;;;1.10;;
12585;SDS011;6358;50.760;0.282;2022-09-20T10:57:12;1.17;;;1.10;;
12585;SDS011;6358;50.760;0.282;2022-09-20T10:59:47;1.87;;;1.03;;
12585;SDS011;6358;50.760;0.282;2022-09-20T11:04:55;1.60;;;1.03;;
12585;SDS011;6358;50.760;0.282;2022-09-20T11:07:31;1.20;;;1.03;;
12585;SDS011;6358;50.760;0.282;2022-09-20T11:10:04;1.00;;;1.00;;
12585;SDS011;6358;50.760;0.282;2022-09-20T11:15:02;1.70;;;1.50;;
12585;SDS011;6358;50.760;0.282;2022-09-20T11:17:35;1.10;;;1.10;;
12585;SDS011;6358;50.760;0.282;2022-09-20T11:20:09;1.20;;;1.10;;
12585;SDS011;6358;50.760;0.282;2022-09-20T11:22:41;1.53;;;1.23;;
12585;SDS011;6358;50.760;0.282;2022-09-20T11:31:18;1.20;;;1.10;;
12585;SDS011;6358;50.760;0.282;2022-09-20T11:33:47;1.93;;;1.20;;
12585;SDS011;6358;50.760;0.282;2022-09-20T11:36:18;1.20;;;1.20;;
12585;SDS011;6358;50.760;0.282;2022-09-20T11:38:57;1.30;;;1.20;;
12585;SDS011;6358;50.760;0.282;2022-09-20T11:41:28;1.60;;;1.10;;
12585;SDS011;6358;50.760;0.282;2022-09-20T11:43:55;2.57;;;1.10;;
12585;SDS011;6358;50.760;0.282;2022-09-20T11:46:28;1.30;;;1.20;;
12585;SDS011;6358;50.760;0.282;2022-09-20T11:49:05;1.10;;;1.00;;
12585;SDS011;6358;50.760;0.282;2022-09-20T11:56:47;1.27;;;1.10;;
12585;SDS011;6358;50.760;0.282;2022-09-20T11:59:48;1.57;;;1.30;;
12585;SDS011;6358;50.760;0.282;2022-09-20T12:02:16;1.30;;;1.20;;
12585;SDS011;6358;50.760;0.282;2022-09-20T12:04:44;1.07;;;1.00;;
12585;SDS011;6358;50.760;0.282;2022-09-20T12:07:22;1.43;;;1.20;;
12585;SDS011;6358;50.760;0.282;2022-09-20T12:09:53;0.97;;;0.90;;
12585;SDS011;6358;50.760;0.282;2022-09-20T12:12:30;1.37;;;1.27;;
12585;SDS011;6358;50.760;0.282;2022-09-20T12:14:58;1.20;;;1.10;;
12585;SDS011;6358;50.760;0.282;2022-09-20T12:23:41;1.20;;;1.10;;
12585;SDS011;6358;50.760;0.282;2022-09-20T12:25:57;1.33;;;1.10;;
12585;SDS011;6358;50.760;0.282;2022-09-20T12:28:34;1.10;;;1.10;;
12585;SDS011;6358;50.760;0.282;2022-09-20T12:36:21;0.90;;;0.90;;
12585;SDS011;6358;50.760;0.282;2022-09-20T12:39:30;0.90;;;0.90;;
12585;SDS011;6358;50.760;0.282;2022-09-20T12:46:49;1.63;;;1.10;;
12585;SDS011;6358;50.760;0.282;2022-09-20T12:49:19;1.73;;;1.07;;
12585;SDS011;6358;50.760;0.282;2022-09-20T13:00:31;1.67;;;0.97;;
12585;SDS011;6358;50.760;0.282;2022-09-20T13:03:00;1.90;;;1.10;;
12585;SDS011;6358;50.760;0.282;2022-09-20T13:05:36;1.20;;;1.10;;
12585;SDS011;6358;50.760;0.282;2022-09-20T13:08:24;1.10;;;1.10;;
12585;SDS011;6358;50.760;0.282;2022-09-20T13:10:56;1.00;;;1.00;;
12585;SDS011;6358;50.760;0.282;2022-09-20T13:15:53;1.70;;;1.10;;
12585;SDS011;6358;50.760;0.282;2022-09-20T13:18:20;1.50;;;1.10;;
12585;SDS011;6358;50.760;0.282;2022-09-20T13:20:48;1.40;;;1.20;;
12585;SDS011;6358;50.760;0.282;2022-09-20T13:23:37;1.47;;;1.37;;
12585;SDS011;6358;50.760;0.282;2022-09-20T13:26:04;0.97;;;0.97;;
12585;SDS011;6358;50.760;0.282;2022-09-20T13:28:36;0.90;;;0.90;;
12585;SDS011;6358;50.760;0.282;2022-09-20T13:33:49;1.27;;;1.13;;
12585;SDS011;6358;50.760;0.282;2022-09-20T13:36:18;1.03;;;1.00;;
12585;SDS011;6358;50.760;0.282;2022-09-20T13:38:46;1.37;;;1.10;;
12585;SDS011;6358;50.760;0.282;2022-09-20T13:41:13;1.10;;;1.00;;
12585;SDS011;6358;50.760;0.282;2022-09-20T13:48:33;0.97;;;0.97;;
12585;SDS011;6358;50.760;0.282;2022-09-20T13:50:59;0.90;;;0.90;;
12585;SDS011;6358;50.760;0.282;2022-09-20T13:53:26;0.97;;;0.97;;
12585;SDS011;6358;50.760;0.282;2022-09-20T13:55:52;1.20;;;1.10;;
12585;SDS011;6358;50.760;0.282;2022-09-20T13:58:20;1.20;;;1.10;;
12585;SDS011;6358;50.760;0.282;2022-09-20T14:00:49;1.40;;;1.10;;
12585;SDS011;6358;50.760;0.282;2022-09-20T14:03:17;1.73;;;0.90;;
12585;SDS011;6358;50.760;0.282;2022-09-20T14:05:44;1.13;;;0.80;;
12585;SDS011;6358;50.760;0.282;2022-09-20T14:08:12;1.00;;;0.90;;
12585;SDS011;6358;50.760;0.282;2022-09-20T14:10:41;1.00;;;0.90;;
12585;SDS011;6358;50.760;0.282;2022-09-20T14:13:10;0.90;;;0.90;;
12585;SDS011;6358;50.760;0.282;2022-09-20T14:15:45;1.20;;;1.10;;
12585;SDS011;6358;50.760;0.282;2022-09-20T14:18:17;0.80;;;0.80;;
12585;SDS011;6358;50.760;0.282;2022-09-20T14:20:45;1.17;;;1.07;;
12585;SDS011;6358;50.760;0.282;2022-09-20T14:23:23;0.80;;;0.80;;
12585;SDS011;6358;50.760;0.282;2022-09-20T14:26:20;1.37;;;0.90;;
12585;SDS011;6358;50.760;0.282;2022-09-20T14:28:46;0.90;;;0.90;;
12585;SDS011;6358;50.760;0.282;2022-09-20T14:31:29;1.10;;;1.00;;
12585;SDS011;6358;50.760;0.282;2022-09-20T14:33:57;1.23;;;1.00;;
12585;SDS011;6358;50.760;0.282;2022-09-20T14:36:25;0.97;;;0.97;;
12585;SDS011;6358;50.760;0.282;2022-09-20T14:38:52;1.17;;;1.00;;
12585;SDS011;6358;50.760;0.282;2022-09-20T14:41:32;1.10;;;1.00;;
12585;SDS011;6358;50.760;0.282;2022-09-20T14:43:59;1.10;;;0.90;;
12585;SDS011;6358;50.760;0.282;2022-09-20T14:46:31;2.23;;;1.00;;
12585;SDS011;6358;50.760;0.282;2022-09-20T14:54:59;0.93;;;0.93;;
12585;SDS011;6358;50.760;0.282;2022-09-20T14:57:26;1.10;;;1.10;;
12585;SDS011;6358;50.760;0.282;2022-09-20T14:59:55;0.80;;;0.80;;
12585;SDS011;6358;50.760;0.282;2022-09-20T15:02:21;1.07;;;0.97;;
12585;SDS011;6358;50.760;0.282;2022-09-20T15:04:53;1.50;;;1.30;;
12585;SDS011;6358;50.760;0.282;2022-09-20T15:07:20;0.80;;;0.80;;
12585;SDS011;6358;50.760;0.282;2022-09-20T15:09:46;0.90;;;0.90;;
12585;SDS011;6358;50.760;0.282;2022-09-20T15:12:19;0.77;;;0.77;;
12585;SDS011;6358;50.760;0.282;2022-09-20T15:14:45;0.93;;;0.87;;
12585;SDS011;6358;50.760;0.282;2022-09-20T15:17:15;0.90;;;0.90;;
12585;SDS011;6358;50.760;0.282;2022-09-20T15:19:42;1.30;;;0.80;;
12585;SDS011;6358;50.760;0.282;2022-09-20T15:22:08;0.70;;;0.70;;
12585;SDS011;6358;50.760;0.282;2022-09-20T15:24:35;0.80;;;0.80;;
12585;SDS011;6358;50.760;0.282;2022-09-20T15:27:01;0.80;;;0.80;;
12585;SDS011;6358;50.760;0.282;2022-09-20T15:29:27;0.90;;;0.90;;
12585;SDS011;6358;50.760;0.282;2022-09-20T15:31:53;1.47;;;1.00;;
12585;SDS011;6358;50.760;0.282;2022-09-20T15:34:20;1.43;;;0.80;;
12585;SDS011;6358;50.760;0.282;2022-09-20T15:36:46;0.90;;;0.70;;
12585;SDS011;6358;50.760;0.282;2022-09-20T15:39:12;0.80;;;0.80;;
12585;SDS011;6358;50.760;0.282;2022-09-20T15:41:39;1.30;;;0.83;;
12585;SDS011;6358;50.760;0.282;2022-09-20T15:44:06;0.70;;;0.70;;
12585;SDS011;6358;50.760;0.282;2022-09-20T15:46:32;0.87;;;0.87;;
12585;SDS011;6358;50.760;0.282;2022-09-20T15:49:00;0.80;;;0.80;;
12585;SDS011;6358;50.760;0.282;2022-09-20T15:51:26;1.33;;;0.93;;
12585;SDS011;6358;50.760;0.282;2022-09-20T15:56:24;0.93;;;0.90;;
12585;SDS011;6358;50.760;0.282;2022-09-20T15:58:55;1.00;;;0.70;;
12585;SDS011;6358;50.760;0.282;2022-09-20T16:01:28;1.33;;;0.70;;
12585;SDS011;6358;50.760;0.282;2022-09-20T16:03:56;1.07;;;0.70;;
12585;SDS011;6358;50.760;0.282;2022-09-20T16:06:22;1.13;;;1.03;;
12585;SDS011;6358;50.760;0.282;2022-09-20T16:08:48;1.80;;;0.93;;
12585;SDS011;6358;50.760;0.282;2022-09-20T16:11:16;0.73;;;0.73;;
12585;SDS011;6358;50.760;0.282;2022-09-20T16:13:44;1.60;;;0.93;;
12585;SDS011;6358;50.760;0.282;2022-09-20T16:16:10;0.67;;;0.67;;
12585;SDS011;6358;50.760;0.282;2022-09-20T16:18:37;0.90;;;0.90;;
12585;SDS011;6358;50.760;0.282;2022-09-20T16:21:22;1.23;;;0.90;;
12585;SDS011;6358;50.760;0.282;2022-09-20T16:23:49;0.80;;;0.80;;
12585;SDS011;6358;50.760;0.282;2022-09-20T16:26:16;0.70;;;0.70;;
12585;SDS011;6358;50.760;0.282;2022-09-20T16:28:42;0.70;;;0.70;;
12585;SDS011;6358;50.760;0.282;2022-09-20T16:33:54;1.00;;;1.00;;
12585;SDS011;6358;50.760;0.282;2022-09-20T16:36:20;1.13;;;1.03;;
12585;SDS011;6358;50.760;0.282;2022-09-20T16:38:49;0.80;;;0.73;;
12585;SDS011;6358;50.760;0.282;2022-09-20T16:41:15;1.00;;;0.80;;
12585;SDS011;6358;50.760;0.282;2022-09-20T16:43:41;0.90;;;0.90;;
12585;SDS011;6358;50.760;0.282;2022-09-20T16:46:07;1.50;;;1.17;;
12585;SDS011;6358;50.760;0.282;2022-09-20T16:48:35;0.93;;;0.83;;
12585;SDS011;6358;50.760;0.282;2022-09-20T16:51:01;1.03;;;1.00;;
12585;SDS011;6358;50.760;0.282;2022-09-20T16:53:28;0.87;;;0.87;;
12585;SDS011;6358;50.760;0.282;2022-09-20T16:55:54;1.13;;;0.90;;
12585;SDS011;6358;50.760;0.282;2022-09-20T16:58:26;0.83;;;0.83;;
12585;SDS011;6358;50.760;0.282;2022-09-20T17:01:00;0.90;;;0.90;;
12585;SDS011;6358;50.760;0.282;2022-09-20T17:03:27;1.10;;;1.00;;
12585;SDS011;6358;50.760;0.282;2022-09-20T17:05:59;0.77;;;0.77;;
12585;SDS011;6358;50.760;0.282;2022-09-20T17:08:26;1.10;;;0.90;;
12585;SDS011;6358;50.760;0.282;2022-09-20T17:10:52;1.00;;;1.00;;
12585;SDS011;6358;50.760;0.282;2022-09-20T17:13:19;0.93;;;0.90;;
12585;SDS011;6358;50.760;0.282;2022-09-20T17:15:45;0.90;;;0.90;;
12585;SDS011;6358;50.760;0.282;2022-09-20T17:18:12;0.77;;;0.77;;
12585;SDS011;6358;50.760;0.282;2022-09-20T17:20:38;3.03;;;1.00;;
12585;SDS011;6358;50.760;0.282;2022-09-20T17:23:05;0.80;;;0.80;;
12585;SDS011;6358;50.760;0.282;2022-09-20T17:25:33;1.00;;;1.00;;
12585;SDS011;6358;50.760;0.282;2022-09-20T17:27:59;1.10;;;1.00;;
12585;SDS011;6358;50.760;0.282;2022-09-20T17:30:25;1.47;;;0.90;;
12585;SDS011;6358;50.760;0.282;2022-09-20T17:32:52;1.00;;;1.00;;
12585;SDS011;6358;50.760;0.282;2022-09-20T17:35:19;1.10;;;1.00;;
12585;SDS011;6358;50.760;0.282;2022-09-20T17:37:45;1.60;;;1.00;;
12585;SDS011;6358;50.760;0.282;2022-09-20T17:40:11;0.90;;;0.90;;
12585;SDS011;6358;50.760;0.282;2022-09-20T17:42:37;0.80;;;0.80;;
12585;SDS011;6358;50.760;0.282;2022-09-20T17:45:03;2.20;;;1.20;;
12585;SDS011;6358;50.760;0.282;2022-09-20T17:47:29;1.23;;;0.80;;
12585;SDS011;6358;50.760;0.282;2022-09-20T17:49:55;1.40;;;1.00;;
12585;SDS011;6358;50.760;0.282;2022-09-20T17:52:22;0.77;;;0.77;;
12585;SDS011;6358;50.760;0.282;2022-09-20T17:54:48;1.00;;;0.90;;
12585;SDS011;6358;50.760;0.282;2022-09-20T17:57:14;0.90;;;0.90;;
12585;SDS011;6358;50.760;0.282;2022-09-20T17:59:40;1.10;;;0.80;;
12585;SDS011;6358;50.760;0.282;2022-09-20T18:02:07;1.07;;;0.97;;
12585;SDS011;6358;50.760;0.282;2022-09-20T18:04:33;1.00;;;0.87;;
12585;SDS011;6358;50.760;0.282;2022-09-20T18:06:59;1.00;;;0.87;;
12585;SDS011;6358;50.760;0.282;2022-09-20T18:09:27;0.70;;;0.70;;
12585;SDS011;6358;50.760;0.282;2022-09-20T18:11:53;1.23;;;0.90;;
12585;SDS011;6358;50.760;0.282;2022-09-20T18:14:21;0.93;;;0.83;;
12585;SDS011;6358;50.760;0.282;2022-09-20T18:16:49;1.90;;;1.00;;
12585;SDS011;6358;50.760;0.282;2022-09-20T18:19:16;0.93;;;0.80;;
12585;SDS011;6358;50.760;0.282;2022-09-20T18:21:42;0.90;;;0.90;;
12585;SDS011;6358;50.760;0.282;2022-09-20T18:24:09;0.97;;;0.97;;
12585;SDS011;6358;50.760;0.282;2022-09-20T18:26:35;1.70;;;1.00;;
12585;SDS011;6358;50.760;0.282;2022-09-20T18:29:11;1.33;;;0.90;;
12585;SDS011;6358;50.760;0.282;2022-09-20T18:31:39;1.20;;;1.10;;
12585;SDS011;6358;50.760;0.282;2022-09-20T18:34:09;0.90;;;0.90;;
12585;SDS011;6358;50.760;0.282;2022-09-20T18:36:36;0.80;;;0.80;;
12585;SDS011;6358;50.760;0.282;2022-09-20T18:39:03;1.13;;;0.87;;
12585;SDS011;6358;50.760;0.282;2022-09-20T18:41:31;1.60;;;0.90;;
12585;SDS011;6358;50.760;0.282;2022-09-20T18:43:58;2.50;;;0.87;;
12585;SDS011;6358;50.760;0.282;2022-09-20T18:46:25;2.03;;;1.00;;
12585;SDS011;6358;50.760;0.282;2022-09-20T18:48:55;0.90;;;0.90;;
12585;SDS011;6358;50.760;0.282;2022-09-20T18:51:22;0.90;;;0.90;;
12585;SDS011;6358;50.760;0.282;2022-09-20T18:53:49;0.73;;;0.73;;
12585;SDS011;6358;50.760;0.282;2022-09-20T18:56:19;1.10;;;0.83;;
12585;SDS011;6358;50.760;0.282;2022-09-20T18:58:46;1.07;;;0.90;;
12585;SDS011;6358;50.760;0.282;2022-09-20T19:04:25;2.03;;;1.07;;
12585;SDS011;6358;50.760;0.282;2022-09-20T19:06:34;0.93;;;0.93;;
12585;SDS011;6358;50.760;0.282;2022-09-20T19:09:04;0.83;;;0.80;;
12585;SDS011;6358;50.760;0.282;2022-09-20T19:11:35;0.93;;;0.70;;
12585;SDS011;6358;50.760;0.282;2022-09-20T19:16:49;1.20;;;0.83;;
12585;SDS011;6358;50.760;0.282;2022-09-20T19:26:57;0.77;;;0.77;;
12585;SDS011;6358;50.760;0.282;2022-09-20T19:29:24;0.90;;;0.90;;
12585;SDS011;6358;50.760;0.282;2022-09-20T19:31:52;0.80;;;0.80;;
12585;SDS011;6358;50.760;0.282;2022-09-20T19:34:23;1.70;;;0.80;;
12585;SDS011;6358;50.760;0.282;2022-09-20T19:47:04;0.97;;;0.70;;
12585;SDS011;6358;50.760;0.282;2022-09-20T19:49:44;0.70;;;0.70;;
12585;SDS011;6358;50.760;0.282;2022-09-20T19:52:12;0.80;;;0.80;;
12585;SDS011;6358;50.760;0.282;2022-09-20T19:54:39;1.03;;;1.00;;
12585;SDS011;6358;50.760;0.282;2022-09-20T19:57:06;0.70;;;0.70;;
12585;SDS011;6358;50.760;0.282;2022-09-20T19:59:34;0.80;;;0.80;;
12585;SDS011;6358;50.760;0.282;2022-09-20T20:02:01;0.80;;;0.80;;
12585;SDS011;6358;50.760;0.282;2022-09-20T20:04:27;0.90;;;0.90;;
12585;SDS011;6358;50.760;0.282;2022-09-20T20:06:57;0.70;;;0.70;;
12585;SDS011;6358;50.760;0.282;2022-09-20T20:14:26;0.90;;;0.90;;
12585;SDS011;6358;50.760;0.282;2022-09-20T20:19:31;0.90;;;0.90;;
12585;SDS011;6358;50.760;0.282;2022-09-20T20:22:03;0.90;;;0.90;;
12585;SDS011;6358;50.760;0.282;2022-09-20T20:24:37;1.20;;;1.00;;
12585;SDS011;6358;50.760;0.282;2022-09-20T20:27:05;1.13;;;0.60;;
12585;SDS011;6358;50.760;0.282;2022-09-20T20:29:31;2.10;;;0.90;;
12585;SDS011;6358;50.760;0.282;2022-09-20T20:31:57;0.70;;;0.70;;
12585;SDS011;6358;50.760;0.282;2022-09-20T20:34:23;0.77;;;0.70;;
12585;SDS011;6358;50.760;0.282;2022-09-20T20:36:50;0.80;;;0.80;;
12585;SDS011;6358;50.760;0.282;2022-09-20T20:39:22;0.93;;;0.90;;
12585;SDS011;6358;50.760;0.282;2022-09-20T20:41:48;0.77;;;0.77;;
12585;SDS011;6358;50.760;0.282;2022-09-20T20:44:16;1.00;;;0.90;;
12585;SDS011;6358;50.760;0.282;2022-09-20T20:46:43;1.73;;;1.00;;
12585;SDS011;6358;50.760;0.282;2022-09-20T20:49:11;0.87;;;0.83;;
12585;SDS011;6358;50.760;0.282;2022-09-20T20:51:37;1.10;;;1.00;;
12585;SDS011;6358;50.760;0.282;2022-09-20T20:54:03;0.90;;;0.90;;